Time;durP1;ratioP1;P1;durP2;ratioP2;P2;SDS_P1;SDS_P2;PMS_P1;PMS_P2;Temp;Humidity;BMP_temperature;BMP_pressure;BME280_temperature;BME280_humidity;BME280_pressure;Samples;Min_cycle;Max_cycle;Signal;HPM_P1;HPM_P2
2023/06/18 00:01:56;;;;;;;;;;;21.00;99.90;;;;;;5094497;28;19947;-75
2023/06/18 00:04:22;;;;;;;;;;;21.00;99.90;;;;;;5094075;28;19915;-75
2023/06/18 00:06:47;;;;;;;;;;;21.00;99.90;;;;;;5093845;28;19904;-75
2023/06/18 00:09:13;;;;;;;;;;;21.00;99.90;;;;;;5094002;28;19904;-74
2023/06/18 00:11:39;;;;;;;;;;;20.80;99.90;;;;;;5094191;28;19911;-75
2023/06/18 00:14:05;;;;;;;;;;;20.80;99.90;;;;;;5093800;28;20000;-73
2023/06/18 00:16:31;;;;;;;;;;;20.90;99.90;;;;;;5075595;28;19904;-75
2023/06/18 00:18:56;;;;;;;;;;;20.90;99.90;;;;;;5093511;28;19908;-75
2023/06/18 00:21:22;;;;;;;;;;;20.90;99.90;;;;;;5094087;28;19939;-75
2023/06/18 00:23:48;;;;;;;;;;;20.90;99.90;;;;;;5093628;28;19915;-75
2023/06/18 00:26:14;;;;;;;;;;;20.90;99.90;;;;;;5093316;28;20006;-75
2023/06/18 00:28:40;;;;;;;;;;;20.90;99.90;;;;;;5093396;28;19904;-75
2023/06/18 00:31:05;;;;;;;;;;;21.00;99.90;;;;;;5093644;28;19912;-75
2023/06/18 00:33:33;;;;;;;;;;;20.90;99.90;;;;;;5093351;28;19999;-75
2023/06/18 00:35:59;;;;;;;;;;;21.00;99.90;;;;;;5093556;28;19947;-74
2023/06/18 00:38:28;;;;;;;;;;;21.00;99.90;;;;;;5093415;28;20411;-74
2023/06/18 00:40:54;;;;;;;;;;;21.00;99.90;;;;;;5093875;28;19910;-74
2023/06/18 00:43:20;;;;;;;;;;;20.90;99.90;;;;;;5093389;28;19982;-75
2023/06/18 00:45:48;;;;;;;;;;;20.80;99.90;;;;;;5093308;28;19904;-74
2023/06/18 00:48:14;;;;;;;;;;;20.80;99.90;;;;;;5093554;28;19904;-74
2023/06/18 00:50:40;;;;;;;;;;;20.70;99.90;;;;;;5093362;28;20018;-75
2023/06/18 00:53:07;;;;;;;;;;;20.70;99.90;;;;;;5093064;28;20322;-74
2023/06/18 00:55:37;;;;;;;;;;;20.80;99.90;;;;;;5093617;28;20382;-74
2023/06/18 00:58:03;;;;;;;;;;;20.80;99.90;;;;;;5093162;28;19904;-74
2023/06/18 01:00:32;;;;;;;;;;;20.80;99.90;;;;;;5093228;28;19904;-74
2023/06/18 01:02:59;;;;;;;;;;;20.70;99.90;;;;;;5074704;28;19927;-75
2023/06/18 01:05:25;;;;;;;;;;;20.70;99.90;;;;;;5093048;28;20053;-75
2023/06/18 01:07:51;;;;;;;;;;;20.70;99.90;;;;;;5093148;28;19911;-75
2023/06/18 01:10:20;;;;;;;;;;;20.70;99.90;;;;;;5093899;28;19991;-75
2023/06/18 01:12:48;;;;;;;;;;;20.60;99.90;;;;;;5092772;28;19919;-74
2023/06/18 01:15:15;;;;;;;;;;;20.60;99.90;;;;;;5093350;28;19923;-74
2023/06/18 01:17:46;;;;;;;;;;;20.60;99.90;;;;;;5092997;28;19904;-76
2023/06/18 01:20:12;;;;;;;;;;;20.50;99.90;;;;;;5093306;28;20251;-75
2023/06/18 01:22:47;;;;;;;;;;;20.50;99.90;;;;;;5092868;28;19987;-75
2023/06/18 01:25:13;;;;;;;;;;;20.40;99.90;;;;;;5092893;28;19904;-75
2023/06/18 01:27:41;;;;;;;;;;;20.40;99.90;;;;;;5074767;28;20368;-74
2023/06/18 01:30:11;;;;;;;;;;;20.40;99.90;;;;;;5074715;28;19914;-75
2023/06/18 01:32:38;;;;;;;;;;;20.40;99.90;;;;;;5092815;28;19955;-75
2023/06/18 01:35:04;;;;;;;;;;;20.30;99.90;;;;;;5092804;28;19962;-75
2023/06/18 01:37:35;;;;;;;;;;;20.30;99.90;;;;;;5094323;28;19991;-75
2023/06/18 01:40:21;;;;;;;;;;;20.30;99.90;;;;;;5097044;28;19911;-74
2023/06/18 01:42:51;;;;;;;;;;;20.40;99.90;;;;;;5078423;28;20051;-74
2023/06/18 01:45:40;;;;;;;;;;;20.40;99.90;;;;;;5096756;28;19966;-75
2023/06/18 01:48:07;;;;;;;;;;;20.50;99.90;;;;;;5093349;28;19904;-75
2023/06/18 01:50:34;;;;;;;;;;;20.50;99.90;;;;;;5097122;28;19968;-75
2023/06/18 01:53:01;;;;;;;;;;;20.60;99.90;;;;;;5096414;28;19968;-75
2023/06/18 01:55:28;;;;;;;;;;;20.60;99.90;;;;;;5096984;28;19904;-74
2023/06/18 01:57:57;;;;;;;;;;;20.70;99.90;;;;;;5096266;28;19949;-75
2023/06/18 02:00:23;;;;;;;;;;;20.70;99.90;;;;;;5096615;28;19911;-74
2023/06/18 02:02:50;;;;;;;;;;;20.80;99.90;;;;;;5094824;28;19943;-74
2023/06/18 02:05:16;;;;;;;;;;;20.90;99.90;;;;;;5096024;28;20237;-75
2023/06/18 02:07:41;;;;;;;;;;;21.10;99.90;;;;;;5096693;28;19911;-75
2023/06/18 02:10:07;;;;;;;;;;;21.30;99.90;;;;;;5096079;28;19908;-74
2023/06/18 02:12:34;;;;;;;;;;;21.40;99.90;;;;;;5096136;28;20015;-73
2023/06/18 02:14:59;;;;;;;;;;;21.40;99.90;;;;;;5095931;28;19923;-75
2023/06/18 02:17:26;;;;;;;;;;;21.50;99.90;;;;;;5096009;28;19904;-74
2023/06/18 02:19:52;;;;;;;;;;;21.40;99.90;;;;;;5077615;28;19950;-75
2023/06/18 02:22:18;;;;;;;;;;;21.40;99.90;;;;;;5095919;28;19908;-75
2023/06/18 02:24:44;;;;;;;;;;;20.90;99.90;;;;;;5095924;28;20303;-75
2023/06/18 02:27:10;;;;;;;;;;;20.40;99.90;;;;;;5095886;28;20376;-75
2023/06/18 02:29:36;;;;;;;;;;;20.10;99.90;;;;;;5094414;28;19908;-76
2023/06/18 02:32:02;;;;;;;;;;;20.00;99.90;;;;;;5077281;28;19925;-76
2023/06/18 02:34:28;;;;;;;;;;;20.00;99.90;;;;;;5095569;28;19957;-76
2023/06/18 02:36:54;;;;;;;;;;;19.90;99.90;;;;;;5077408;28;19958;-75
2023/06/18 02:39:21;;;;;;;;;;;19.70;99.90;;;;;;5095815;28;19999;-75
2023/06/18 02:41:47;;;;;;;;;;;19.50;99.90;;;;;;5077276;28;19911;-75
2023/06/18 02:44:13;;;;;;;;;;;19.30;99.90;;;;;;5095956;28;19911;-75
2023/06/18 02:46:38;;;;;;;;;;;19.40;99.90;;;;;;5095737;28;20320;-75
2023/06/18 02:49:05;;;;;;;;;;;19.60;99.90;;;;;;5094845;28;20384;-75
2023/06/18 02:51:30;;;;;;;;;;;19.90;99.90;;;;;;5095425;28;19912;-76
2023/06/18 02:53:59;;;;;;;;;;;20.00;99.90;;;;;;5095229;28;20473;-75
2023/06/18 02:56:28;;;;;;;;;;;20.10;99.90;;;;;;5095247;28;19950;-75
2023/06/18 02:58:56;;;;;;;;;;;20.00;99.90;;;;;;5095460;28;19911;-75
2023/06/18 03:01:23;;;;;;;;;;;20.10;99.90;;;;;;5095422;28;19950;-75
2023/06/18 03:03:49;;;;;;;;;;;20.10;99.90;;;;;;5076807;28;19912;-75
2023/06/18 03:06:15;;;;;;;;;;;20.10;99.90;;;;;;5095167;28;20332;-75
2023/06/18 03:08:41;;;;;;;;;;;20.10;99.90;;;;;;5095081;28;19911;-75
2023/06/18 03:11:07;;;;;;;;;;;20.10;99.90;;;;;;5095394;28;19972;-75
2023/06/18 03:13:32;;;;;;;;;;;20.10;99.90;;;;;;5094765;28;20056;-75
2023/06/18 03:15:59;;;;;;;;;;;20.20;99.90;;;;;;5095233;28;19911;-75
2023/06/18 03:18:24;;;;;;;;;;;20.20;99.90;;;;;;5094685;28;19904;-75
2023/06/18 03:20:50;;;;;;;;;;;20.30;99.90;;;;;;5095231;28;19904;-76
2023/06/18 03:23:16;;;;;;;;;;;20.20;99.90;;;;;;5094763;28;19904;-75
2023/06/18 03:25:42;;;;;;;;;;;20.30;99.90;;;;;;5095010;28;20364;-75
2023/06/18 03:28:08;;;;;;;;;;;20.30;99.90;;;;;;5076556;28;19912;-75
2023/06/18 03:30:34;;;;;;;;;;;20.40;99.90;;;;;;5093227;28;19908;-74
2023/06/18 03:33:02;;;;;;;;;;;20.40;99.90;;;;;;5094332;28;20021;-74
2023/06/18 03:35:28;;;;;;;;;;;20.40;99.90;;;;;;5095019;28;19904;-75
2023/06/18 03:37:53;;;;;;;;;;;20.40;99.90;;;;;;5094526;28;19904;-74
2023/06/18 03:40:19;;;;;;;;;;;20.50;99.90;;;;;;5094975;28;19912;-75
2023/06/18 03:42:45;;;;;;;;;;;20.50;99.90;;;;;;5094363;28;19957;-74
2023/06/18 03:45:11;;;;;;;;;;;20.50;99.90;;;;;;5094439;28;20016;-75
2023/06/18 03:47:37;;;;;;;;;;;20.50;99.90;;;;;;5094459;28;20264;-74
2023/06/18 03:50:03;;;;;;;;;;;20.40;99.90;;;;;;5093894;28;19915;-74
2023/06/18 03:52:29;;;;;;;;;;;20.30;99.90;;;;;;5094149;28;20375;-75
2023/06/18 03:54:55;;;;;;;;;;;20.40;99.90;;;;;;5094109;28;19904;-75
2023/06/18 03:57:20;;;;;;;;;;;20.40;99.90;;;;;;5094517;28;19904;-74
2023/06/18 03:59:51;;;;;;;;;;;20.30;99.90;;;;;;5093227;28;19904;-75
2023/06/18 04:02:17;;;;;;;;;;;20.30;99.90;;;;;;5094486;28;19904;-75
2023/06/18 04:04:44;;;;;;;;;;;20.40;99.90;;;;;;5093848;28;19949;-74
2023/06/18 04:07:10;;;;;;;;;;;20.40;99.90;;;;;;5094147;28;19908;-75
2023/06/18 04:09:36;;;;;;;;;;;20.30;99.90;;;;;;5094009;28;19965;-74
2023/06/18 04:12:02;;;;;;;;;;;20.30;99.90;;;;;;5094013;28;20360;-75
2023/06/18 04:14:28;;;;;;;;;;;20.40;99.90;;;;;;5071879;28;19916;-75
2023/06/18 04:16:54;;;;;;;;;;;20.30;99.90;;;;;;5073503;28;19973;-75
2023/06/18 04:19:21;;;;;;;;;;;20.20;99.90;;;;;;5073478;28;19904;-74
2023/06/18 04:21:47;;;;;;;;;;;20.10;99.90;;;;;;5073301;28;19905;-75
2023/06/18 04:24:13;;;;;;;;;;;20.10;99.90;;;;;;5073384;28;20225;-75
2023/06/18 04:26:39;;;;;;;;;;;20.20;99.90;;;;;;5073259;28;19911;-75
2023/06/18 04:29:05;;;;;;;;;;;20.20;99.90;;;;;;5073751;28;19965;-75
2023/06/18 04:31:31;;;;;;;;;;;20.20;99.90;;;;;;5073267;28;20309;-75
2023/06/18 04:33:57;;;;;;;;;;;20.20;99.90;;;;;;5072945;28;19904;-75
2023/06/18 04:36:23;;;;;;;;;;;20.30;99.90;;;;;;5071752;28;19958;-74
2023/06/18 04:38:48;;;;;;;;;;;20.40;99.90;;;;;;5105582;28;19904;-75
2023/06/18 04:41:14;;;;;;;;;;;20.40;99.90;;;;;;5073305;28;20363;-75
2023/06/18 04:43:40;;;;;;;;;;;20.40;99.90;;;;;;5073151;28;20010;-75
2023/06/18 04:46:06;;;;;;;;;;;20.50;99.90;;;;;;5071723;28;19914;-74
2023/06/18 04:48:34;;;;;;;;;;;20.50;99.90;;;;;;5073401;28;19908;-75
2023/06/18 04:50:59;;;;;;;;;;;20.50;99.90;;;;;;5072934;28;19913;-75
2023/06/18 04:53:25;;;;;;;;;;;20.60;99.90;;;;;;5072897;28;19958;-75
2023/06/18 04:55:51;;;;;;;;;;;20.70;99.90;;;;;;5071549;28;19904;-75
2023/06/18 04:58:17;;;;;;;;;;;20.80;99.90;;;;;;5072909;28;20007;-74
2023/06/18 05:00:44;;;;;;;;;;;21.10;99.90;;;;;;5072950;28;19915;-75
2023/06/18 05:03:09;;;;;;;;;;;21.80;99.90;;;;;;5072632;28;19999;-75
2023/06/18 05:05:35;;;;;;;;;;;22.60;99.90;;;;;;5073201;28;19955;-75
2023/06/18 05:08:01;;;;;;;;;;;23.40;99.90;;;;;;5072939;28;20379;-75
2023/06/18 05:10:27;;;;;;;;;;;23.80;99.90;;;;;;5072403;28;20363;-75
2023/06/18 05:12:53;;;;;;;;;;;24.20;99.90;;;;;;5074759;28;19908;-75
2023/06/18 05:15:19;;;;;;;;;;;24.70;99.90;;;;;;5093295;28;19918;-74
2023/06/18 05:17:45;;;;;;;;;;;25.00;99.90;;;;;;5074572;28;20306;-75
2023/06/18 05:20:11;;;;;;;;;;;25.40;99.90;;;;;;5092649;28;19904;-75
2023/06/18 05:22:39;;;;;;;;;;;25.80;99.90;;;;;;5092827;28;20375;-74
2023/06/18 05:25:05;;;;;;;;;;;26.20;99.90;;;;;;5093280;28;19904;-75
2023/06/18 05:27:31;;;;;;;;;;;26.50;99.90;;;;;;5092824;28;19904;-75
2023/06/18 05:29:57;;;;;;;;;;;27.00;99.90;;;;;;5093401;28;19949;-75
2023/06/18 05:32:22;;;;;;;;;;;27.00;99.90;;;;;;5092964;28;19916;-75
2023/06/18 05:34:49;;;;;;;;;;;27.10;99.90;;;;;;5092785;28;19973;-76
2023/06/18 05:37:15;;;;;;;;;;;27.70;99.40;;;;;;5093196;28;19904;-75
2023/06/18 05:39:41;;;;;;;;;;;27.10;99.40;;;;;;5093013;28;19904;-75
2023/06/18 05:42:07;;;;;;;;;;;27.40;99.20;;;;;;5092808;28;19949;-75
2023/06/18 05:44:33;;;;;;;;;;;28.10;98.40;;;;;;5093253;28;19908;-74
2023/06/18 05:46:59;;;;;;;;;;;28.20;98.80;;;;;;5092956;28;19904;-75
2023/06/18 05:49:25;;;;;;;;;;;28.20;99.10;;;;;;5092623;28;20369;-75
2023/06/18 05:51:51;;;;;;;;;;;29.00;98.40;;;;;;5091455;28;20061;-75
2023/06/18 05:54:17;;;;;;;;;;;29.60;97.90;;;;;;5093263;28;19966;-75
2023/06/18 05:56:43;;;;;;;;;;;29.90;97.30;;;;;;5092733;28;19908;-75
2023/06/18 05:59:09;;;;;;;;;;;29.00;97.60;;;;;;5092725;28;19904;-76
2023/06/18 06:01:35;;;;;;;;;;;28.70;98.10;;;;;;5093341;28;19904;-74
2023/06/18 06:04:01;;;;;;;;;;;29.00;98.00;;;;;;5091225;28;19930;-74
2023/06/18 06:06:27;;;;;;;;;;;28.70;98.30;;;;;;5092654;28;20288;-74
2023/06/18 06:08:53;;;;;;;;;;;28.90;98.30;;;;;;5074471;28;19907;-75
2023/06/18 06:11:19;;;;;;;;;;;29.40;98.00;;;;;;5074489;28;19927;-75
2023/06/18 06:13:45;;;;;;;;;;;30.10;97.30;;;;;;5092372;28;20022;-74
2023/06/18 06:16:11;;;;;;;;;;;30.10;97.10;;;;;;5092835;28;19904;-75
2023/06/18 06:18:37;;;;;;;;;;;30.50;96.90;;;;;;5092390;28;19922;-73
2023/06/18 06:21:03;;;;;;;;;;;30.30;96.90;;;;;;5093009;28;19968;-74
2023/06/18 06:23:32;;;;;;;;;;;29.30;97.60;;;;;;5092547;28;20376;-74
2023/06/18 06:25:58;;;;;;;;;;;28.60;98.60;;;;;;5096687;28;19904;-75
2023/06/18 06:28:23;;;;;;;;;;;28.90;98.40;;;;;;5096074;28;19910;-74
2023/06/18 06:30:49;;;;;;;;;;;29.20;98.30;;;;;;5096431;28;19969;-74
2023/06/18 06:33:15;;;;;;;;;;;28.70;98.60;;;;;;5095862;28;19904;-75
2023/06/18 06:35:41;;;;;;;;;;;28.60;98.60;;;;;;5096216;28;19904;-73
2023/06/18 06:38:07;;;;;;;;;;;28.60;98.50;;;;;;5095897;28;19908;-74
2023/06/18 06:40:33;;;;;;;;;;;28.60;98.60;;;;;;5095915;28;19908;-74
2023/06/18 06:42:59;;;;;;;;;;;29.20;98.20;;;;;;5096306;28;19911;-74
2023/06/18 06:45:27;;;;;;;;;;;29.50;98.20;;;;;;5095692;28;19977;-75
2023/06/18 06:47:53;;;;;;;;;;;30.50;97.60;;;;;;5096050;28;19908;-74
2023/06/18 06:50:19;;;;;;;;;;;30.80;96.80;;;;;;5095534;28;20190;-73
2023/06/18 06:52:45;;;;;;;;;;;30.80;96.20;;;;;;5095675;28;19908;-75
2023/06/18 06:55:11;;;;;;;;;;;31.00;96.60;;;;;;5094332;28;19904;-74
2023/06/18 06:57:37;;;;;;;;;;;32.00;95.20;;;;;;5095499;28;20257;-74
2023/06/18 07:00:03;;;;;;;;;;;33.60;94.50;;;;;;5095550;28;20400;-74
2023/06/18 07:02:30;;;;;;;;;;;34.60;93.60;;;;;;5096091;28;19919;-75
2023/06/18 07:04:56;;;;;;;;;;;35.00;91.60;;;;;;5095382;28;19911;-74
2023/06/18 07:07:22;;;;;;;;;;;36.30;91.40;;;;;;5095471;28;20437;-74
2023/06/18 07:09:48;;;;;;;;;;;37.00;91.40;;;;;;5095389;28;19911;-74
2023/06/18 07:12:13;;;;;;;;;;;36.10;90.40;;;;;;5094059;28;20280;-74
2023/06/18 07:14:39;;;;;;;;;;;35.00;89.50;;;;;;5095048;28;20006;-74
2023/06/18 07:17:05;;;;;;;;;;;34.60;90.40;;;;;;5095171;28;19948;-74
2023/06/18 07:19:31;;;;;;;;;;;35.00;90.70;;;;;;5095098;28;19911;-74
2023/06/18 07:21:57;;;;;;;;;;;35.50;90.20;;;;;;5095661;28;19907;-75
2023/06/18 07:24:22;;;;;;;;;;;35.40;90.30;;;;;;5095107;28;20396;-74
2023/06/18 07:26:48;;;;;;;;;;;35.60;91.30;;;;;;5095103;28;19990;-74
2023/06/18 07:29:14;;;;;;;;;;;35.40;91.30;;;;;;5095557;28;19904;-74
2023/06/18 07:31:40;;;;;;;;;;;35.00;91.50;;;;;;5094900;28;19915;-74
2023/06/18 07:34:06;;;;;;;;;;;34.70;92.20;;;;;;5094667;28;19919;-74
2023/06/18 07:36:32;;;;;;;;;;;34.40;93.20;;;;;;5095471;28;20264;-74
2023/06/18 07:38:57;;;;;;;;;;;34.30;92.80;;;;;;5094845;28;20331;-73
2023/06/18 07:41:23;;;;;;;;;;;34.60;92.90;;;;;;5094823;28;20364;-72
2023/06/18 07:43:49;;;;;;;;;;;34.50;92.80;;;;;;5094711;28;19904;-74
2023/06/18 07:46:15;;;;;;;;;;;34.10;92.60;;;;;;5094655;28;19911;-74
2023/06/18 07:48:41;;;;;;;;;;;33.70;93.60;;;;;;5094646;28;20403;-74
2023/06/18 07:51:06;;;;;;;;;;;33.20;94.00;;;;;;5094339;28;19908;-74
2023/06/18 07:53:32;;;;;;;;;;;32.70;93.40;;;;;;5094459;28;19948;-76
2023/06/18 07:56:01;;;;;;;;;;;32.60;93.60;;;;;;5094920;28;20248;-74
2023/06/18 07:58:27;;;;;;;;;;;32.50;93.90;;;;;;5094586;28;19904;-75
2023/06/18 08:00:53;;;;;;;;;;;32.40;93.30;;;;;;5094756;28;20213;-73
2023/06/18 08:03:18;;;;;;;;;;;31.60;93.60;;;;;;5094144;28;19904;-74
2023/06/18 08:05:44;;;;;;;;;;;32.20;93.90;;;;;;5094053;28;19904;-74
2023/06/18 08:08:11;;;;;;;;;;;31.90;93.60;;;;;;5094480;28;20328;-74
2023/06/18 08:10:37;;;;;;;;;;;31.50;94.30;;;;;;5093848;28;19911;-74
2023/06/18 08:13:02;;;;;;;;;;;31.30;94.70;;;;;;5093852;28;20241;-75
2023/06/18 08:15:28;;;;;;;;;;;31.20;95.20;;;;;;5075784;28;19912;-74
2023/06/18 08:17:54;;;;;;;;;;;31.30;95.00;;;;;;5094386;28;19904;-74
2023/06/18 08:20:20;;;;;;;;;;;31.50;95.20;;;;;;5092433;28;19911;-73
2023/06/18 08:22:46;;;;;;;;;;;31.70;95.50;;;;;;5092509;28;19903;-75
2023/06/18 08:25:11;;;;;;;;;;;32.00;95.50;;;;;;5094466;28;19904;-75
2023/06/18 08:27:37;;;;;;;;;;;31.40;95.80;;;;;;5093837;28;19904;-75
2023/06/18 08:30:04;;;;;;;;;;;31.20;96.50;;;;;;5093836;28;19908;-75
2023/06/18 08:32:29;;;;;;;;;;;31.40;96.50;;;;;;5075580;28;19908;-75
2023/06/18 08:34:55;;;;;;;;;;;32.00;96.00;;;;;;5075652;28;19904;-75
2023/06/18 08:37:21;;;;;;;;;;;32.30;95.50;;;;;;5093846;28;19911;-75
2023/06/18 08:39:47;;;;;;;;;;;32.60;94.70;;;;;;5093830;28;19905;-74
2023/06/18 08:42:17;;;;;;;;;;;32.30;93.90;;;;;;5092208;28;19904;-74
2023/06/18 08:44:45;;;;;;;;;;;32.10;94.10;;;;;;5093806;28;19912;-75
2023/06/18 08:47:11;;;;;;;;;;;31.10;94.40;;;;;;5092928;28;20004;-75
2023/06/18 08:49:40;;;;;;;;;;;31.20;95.10;;;;;;5093535;28;19904;-75
2023/06/18 08:52:07;;;;;;;;;;;31.70;94.80;;;;;;5093848;28;19912;-75
2023/06/18 08:54:34;;;;;;;;;;;31.70;94.10;;;;;;5075307;28;19908;-75
2023/06/18 08:57:11;;;;;;;;;;;32.00;93.10;;;;;;5093549;28;19904;-75
2023/06/18 08:59:37;;;;;;;;;;;32.20;93.10;;;;;;5093791;28;20002;-74
2023/06/18 09:02:04;;;;;;;;;;;31.80;92.50;;;;;;5093430;28;19912;-74
2023/06/18 09:04:31;;;;;;;;;;;32.10;93.00;;;;;;5093133;28;20027;-76
2023/06/18 09:06:58;;;;;;;;;;;32.20;92.30;;;;;;5093820;28;19908;-75
2023/06/18 09:09:24;;;;;;;;;;;31.60;91.50;;;;;;5093515;28;19908;-74
2023/06/18 09:11:50;;;;;;;;;;;31.40;92.50;;;;;;5093694;28;19912;-75
2023/06/18 09:14:15;;;;;;;;;;;31.80;92.00;;;;;;5093059;28;20214;-75
2023/06/18 09:16:43;;;;;;;;;;;31.00;91.90;;;;;;5093720;28;19919;-76
2023/06/18 09:19:09;;;;;;;;;;;31.30;92.40;;;;;;5092981;28;19904;-74
2023/06/18 09:21:40;;;;;;;;;;;31.00;92.20;;;;;;5093076;28;19904;-74
2023/06/18 09:24:11;;;;;;;;;;;31.00;92.40;;;;;;5074957;28;19954;-74
2023/06/18 09:26:37;;;;;;;;;;;31.00;92.30;;;;;;5093335;28;19904;-75
2023/06/18 09:29:06;;;;;;;;;;;30.40;92.80;;;;;;5093387;28;19934;-74
2023/06/18 09:31:33;;;;;;;;;;;30.10;93.10;;;;;;5092910;28;19912;-74
2023/06/18 09:34:12;;;;;;;;;;;30.50;93.20;;;;;;5092921;28;19926;-74
2023/06/18 09:36:42;;;;;;;;;;;30.70;92.30;;;;;;5093019;28;19911;-74
2023/06/18 09:39:14;;;;;;;;;;;30.80;92.40;;;;;;5093482;28;19904;-74
2023/06/18 09:41:41;;;;;;;;;;;30.50;92.20;;;;;;5092791;28;19998;-74
2023/06/18 09:44:07;;;;;;;;;;;30.70;92.40;;;;;;5093370;28;19949;-74
2023/06/18 09:46:33;;;;;;;;;;;30.70;91.60;;;;;;5093137;28;20352;-74
2023/06/18 09:49:00;;;;;;;;;;;30.40;92.00;;;;;;5087094;28;19966;-74
2023/06/18 09:51:26;;;;;;;;;;;30.50;92.00;;;;;;5065636;28;19935;-73
2023/06/18 09:54:00;;;;;;;;;;;30.60;92.00;;;;;;5092783;28;19908;-75
2023/06/18 09:56:25;;;;;;;;;;;30.40;91.50;;;;;;5093009;28;19904;-74
2023/06/18 09:58:51;;;;;;;;;;;30.50;91.50;;;;;;5110478;28;20319;-73
2023/06/18 10:01:18;;;;;;;;;;;30.30;91.40;;;;;;5097135;28;19911;-73
2023/06/18 10:03:44;;;;;;;;;;;30.20;91.50;;;;;;5078177;28;19958;-73
2023/06/18 10:06:17;;;;;;;;;;;30.40;91.30;;;;;;5097077;28;20359;-73
2023/06/18 10:08:45;;;;;;;;;;;30.40;91.10;;;;;;5096815;28;19904;-73
2023/06/18 10:11:12;;;;;;;;;;;30.50;91.20;;;;;;5096976;28;19912;-73
2023/06/18 10:13:44;;;;;;;;;;;30.60;90.90;;;;;;5096370;28;19961;-73
2023/06/18 10:16:12;;;;;;;;;;;30.50;90.60;;;;;;5112140;28;19904;-73
2023/06/18 10:18:39;;;;;;;;;;;30.10;90.90;;;;;;5096068;28;19904;-73
2023/06/18 10:21:07;;;;;;;;;;;30.20;90.70;;;;;;5078063;28;20360;-73
2023/06/18 10:23:33;;;;;;;;;;;30.30;91.00;;;;;;5078364;28;19908;-73
2023/06/18 10:26:00;;;;;;;;;;;30.10;90.60;;;;;;5096259;28;19927;-73
2023/06/18 10:28:27;;;;;;;;;;;29.90;91.00;;;;;;5096486;28;20401;-73
2023/06/18 10:31:21;;;;;;;;;;;29.70;91.10;;;;;;5077882;28;20003;-74
2023/06/18 10:33:47;;;;;;;;;;;29.90;91.30;;;;;;5096318;28;19957;-73
2023/06/18 10:36:14;;;;;;;;;;;29.60;91.00;;;;;;5096066;28;19911;-73
2023/06/18 10:38:40;;;;;;;;;;;29.50;91.30;;;;;;5095874;28;19932;-73
2023/06/18 10:41:12;;;;;;;;;;;29.40;91.20;;;;;;5096020;28;19965;-73
2023/06/18 10:43:38;;;;;;;;;;;29.50;91.60;;;;;;5077744;28;19936;-73
2023/06/18 10:46:11;;;;;;;;;;;29.20;91.60;;;;;;5095867;28;19907;-73
2023/06/18 10:48:37;;;;;;;;;;;29.20;91.30;;;;;;5095511;28;19973;-74
2023/06/18 10:51:18;;;;;;;;;;;29.20;91.90;;;;;;5096041;28;20352;-74
2023/06/18 10:53:45;;;;;;;;;;;29.00;91.10;;;;;;5095572;28;19930;-73
2023/06/18 10:56:14;;;;;;;;;;;28.80;91.70;;;;;;5095623;28;19904;-73
2023/06/18 10:58:40;;;;;;;;;;;29.00;92.20;;;;;;5095464;28;19904;-73
2023/06/18 11:01:06;;;;;;;;;;;29.20;92.10;;;;;;5096085;28;19911;-73
2023/06/18 11:03:36;;;;;;;;;;;29.40;92.10;;;;;;5094023;28;19904;-74
2023/06/18 11:06:03;;;;;;;;;;;29.60;91.70;;;;;;5096037;28;19904;-73
2023/06/18 11:08:30;;;;;;;;;;;29.70;91.40;;;;;;5094970;28;20317;-74
2023/06/18 11:11:06;;;;;;;;;;;29.80;91.60;;;;;;5095125;28;20279;-74
2023/06/18 11:13:36;;;;;;;;;;;29.80;91.20;;;;;;5073532;28;20288;-74
2023/06/18 11:16:10;;;;;;;;;;;29.60;91.40;;;;;;5075599;28;20348;-74
2023/06/18 11:18:36;;;;;;;;;;;29.90;91.00;;;;;;5090333;28;19904;-73
2023/06/18 11:21:03;;;;;;;;;;;30.10;90.80;;;;;;5074951;28;19904;-73
2023/06/18 11:23:30;;;;;;;;;;;30.10;91.10;;;;;;5074932;28;19939;-73
2023/06/18 11:25:56;;;;;;;;;;;30.30;90.90;;;;;;5074897;28;19905;-74
2023/06/18 11:28:24;;;;;;;;;;;29.90;90.60;;;;;;5074812;28;19905;-74
2023/06/18 11:30:51;;;;;;;;;;;29.70;90.60;;;;;;5074641;28;20426;-73
2023/06/18 11:33:21;;;;;;;;;;;29.60;90.80;;;;;;5074638;28;19905;-73
2023/06/18 11:35:47;;;;;;;;;;;29.60;91.30;;;;;;5075179;28;19974;-74
2023/06/18 11:38:12;;;;;;;;;;;29.60;92.00;;;;;;5074446;28;19904;-73
2023/06/18 11:40:48;;;;;;;;;;;29.90;92.30;;;;;;5074448;28;19957;-73
2023/06/18 11:43:14;;;;;;;;;;;29.60;92.40;;;;;;5074348;28;19908;-73
2023/06/18 11:45:40;;;;;;;;;;;30.00;92.80;;;;;;5074482;28;19991;-73
2023/06/18 11:48:06;;;;;;;;;;;30.00;92.10;;;;;;5074761;28;19904;-73
2023/06/18 11:50:31;;;;;;;;;;;29.90;91.70;;;;;;5074279;28;19957;-74
2023/06/18 11:52:57;;;;;;;;;;;29.80;92.10;;;;;;5089740;28;20284;-73
2023/06/18 11:55:23;;;;;;;;;;;29.50;92.20;;;;;;5074762;28;19988;-74
2023/06/18 11:57:49;;;;;;;;;;;29.60;91.70;;;;;;5074406;28;19911;-72
2023/06/18 12:00:16;;;;;;;;;;;29.70;91.50;;;;;;5074505;28;19908;-73
2023/06/18 12:02:42;;;;;;;;;;;29.70;91.40;;;;;;5073915;28;19911;-73
2023/06/18 12:05:08;;;;;;;;;;;29.80;90.90;;;;;;5073809;28;19912;-73
2023/06/18 12:07:38;;;;;;;;;;;29.80;91.30;;;;;;5073849;28;19948;-73
2023/06/18 12:10:05;;;;;;;;;;;29.80;91.00;;;;;;5072458;28;20422;-73
2023/06/18 12:12:34;;;;;;;;;;;29.80;90.30;;;;;;5088777;28;19948;-73
2023/06/18 12:15:00;;;;;;;;;;;29.80;90.40;;;;;;5092701;28;19939;-74
2023/06/18 12:17:46;;;;;;;;;;;29.80;90.80;;;;;;5094006;28;20356;-74
2023/06/18 12:20:13;;;;;;;;;;;30.20;90.90;;;;;;5093377;28;19904;-74
2023/06/18 12:22:40;;;;;;;;;;;30.20;90.70;;;;;;5093888;28;19911;-75
2023/06/18 12:25:07;;;;;;;;;;;30.20;91.10;;;;;;5093901;28;20301;-74
2023/06/18 12:27:34;;;;;;;;;;;30.20;91.10;;;;;;5094098;28;19904;-74
2023/06/18 12:30:00;;;;;;;;;;;29.70;91.40;;;;;;5094099;28;20358;-74
2023/06/18 12:32:26;;;;;;;;;;;29.90;91.20;;;;;;5093832;28;20287;-75
2023/06/18 12:34:52;;;;;;;;;;;29.90;91.40;;;;;;5093696;28;19943;-74
2023/06/18 12:37:18;;;;;;;;;;;29.60;92.00;;;;;;5094364;28;20323;-75
2023/06/18 12:40:03;;;;;;;;;;;29.50;92.30;;;;;;5093779;28;19953;-74
2023/06/18 12:42:31;;;;;;;;;;;29.60;92.50;;;;;;5092258;28;19926;-74
2023/06/18 12:44:57;;;;;;;;;;;29.60;93.20;;;;;;5093672;28;19908;-75
2023/06/18 12:47:23;;;;;;;;;;;29.60;93.90;;;;;;5093435;28;20007;-76
2023/06/18 12:49:49;;;;;;;;;;;29.60;94.30;;;;;;5093131;28;19911;-75
2023/06/18 12:52:16;;;;;;;;;;;29.70;94.10;;;;;;5091997;28;19916;-76
2023/06/18 12:54:43;;;;;;;;;;;29.70;93.20;;;;;;5093807;28;19904;-77
2023/06/18 12:57:12;;;;;;;;;;;29.40;93.00;;;;;;5093524;28;19908;-75
2023/06/18 12:59:47;;;;;;;;;;;29.30;91.60;;;;;;5093506;28;19990;-77
2023/06/18 13:02:13;;;;;;;;;;;29.20;91.70;;;;;;5093776;28;19908;-77
2023/06/18 13:04:41;;;;;;;;;;;29.50;92.80;;;;;;5093135;28;20045;-75
2023/06/18 13:07:07;;;;;;;;;;;29.40;92.10;;;;;;5091993;28;19946;-75
2023/06/18 13:09:33;;;;;;;;;;;29.60;92.40;;;;;;5093717;28;20049;-76
2023/06/18 13:11:58;;;;;;;;;;;29.50;92.80;;;;;;5093256;28;20053;-76
2023/06/18 13:14:24;;;;;;;;;;;29.50;92.60;;;;;;5093178;28;19977;-75
2023/06/18 13:16:51;;;;;;;;;;;29.40;93.40;;;;;;5075157;28;19907;-75
2023/06/18 13:19:17;;;;;;;;;;;29.40;93.90;;;;;;5093037;28;19911;-75
2023/06/18 13:21:43;;;;;;;;;;;29.50;94.00;;;;;;5091857;28;19950;-76
2023/06/18 13:24:09;;;;;;;;;;;29.40;92.50;;;;;;5093510;28;19904;-75
2023/06/18 13:26:35;;;;;;;;;;;29.30;92.80;;;;;;5093408;28;20314;-75
2023/06/18 13:29:01;;;;;;;;;;;29.10;92.50;;;;;;5093172;28;19926;-75
2023/06/18 13:31:27;;;;;;;;;;;29.00;93.50;;;;;;5093587;28;20397;-74
2023/06/18 13:33:52;;;;;;;;;;;29.30;94.40;;;;;;5078636;28;19911;-75
2023/06/18 13:36:18;;;;;;;;;;;29.50;94.20;;;;;;5097831;28;20379;-75
2023/06/18 13:38:44;;;;;;;;;;;29.60;95.00;;;;;;5097225;28;19915;-75
2023/06/18 13:41:10;;;;;;;;;;;29.70;93.90;;;;;;5095854;28;20288;-75
2023/06/18 13:43:36;;;;;;;;;;;29.70;93.80;;;;;;5097617;28;19904;-75
2023/06/18 13:46:01;;;;;;;;;;;29.80;93.10;;;;;;5097109;28;19904;-74
2023/06/18 13:48:27;;;;;;;;;;;29.80;92.90;;;;;;5096858;28;19904;-75
2023/06/18 13:50:53;;;;;;;;;;;29.70;92.70;;;;;;5096891;28;19915;-75
2023/06/18 13:53:19;;;;;;;;;;;29.80;92.70;;;;;;5096955;28;20384;-75
2023/06/18 13:55:45;;;;;;;;;;;29.70;92.60;;;;;;5078646;28;19908;-75
2023/06/18 13:58:11;;;;;;;;;;;29.70;92.40;;;;;;5096822;28;19911;-74
2023/06/18 14:00:36;;;;;;;;;;;29.60;93.30;;;;;;5097321;28;19911;-75
2023/06/18 14:03:03;;;;;;;;;;;29.70;93.20;;;;;;5112518;28;19908;-74
2023/06/18 14:05:29;;;;;;;;;;;29.70;93.10;;;;;;5096665;28;19949;-75
2023/06/18 14:07:54;;;;;;;;;;;29.40;93.50;;;;;;5096891;28;19911;-74
2023/06/18 14:10:20;;;;;;;;;;;29.60;92.30;;;;;;5096630;28;20304;-74
2023/06/18 14:12:46;;;;;;;;;;;29.60;91.20;;;;;;5078153;28;19921;-76
2023/06/18 14:15:13;;;;;;;;;;;29.80;91.50;;;;;;5096973;28;19949;-74